Time;durP1;ratioP1;P1;durP2;ratioP2;P2;SDS_P1;SDS_P2;PMS_P1;PMS_P2;Temp;Humidity;BMP_temperature;BMP_pressure;BME280_temperature;BME280_humidity;BME280_pressure;Samples;Min_cycle;Max_cycle;Signal;HPM_P1;HPM_P2
2022/05/13 00:01:11;;;;;;;12.00;10.63;;;;;;;;;;5020585;28;20407;-86
2022/05/13 00:03:38;;;;;;;15.17;12.50;;;;;;;;;;5006690;28;20446;-86
2022/05/13 00:06:04;;;;;;;14.10;12.13;;;;;;;;;;5005003;28;20550;-86
2022/05/13 00:08:31;;;;;;;15.97;12.77;;;;;;;;;;5004076;28;20430;-86
2022/05/13 00:10:57;;;;;;;17.00;12.50;;;;;;;;;;5004071;28;20454;-86
2022/05/13 00:13:24;;;;;;;15.23;11.47;;;;;;;;;;5020362;28;20403;-86
2022/05/13 00:15:50;;;;;;;13.10;11.70;;;;;;;;;;5003166;28;20565;-88
2022/05/13 00:18:17;;;;;;;16.73;12.60;;;;;;;;;;5003543;28;20430;-86
2022/05/13 00:20:44;;;;;;;13.17;11.43;;;;;;;;;;5021172;28;20482;-86
2022/05/13 00:23:10;;;;;;;12.27;10.90;;;;;;;;;;5002816;28;20447;-85
2022/05/13 00:25:36;;;;;;;16.00;14.33;;;;;;;;;;5019896;28;20427;-88
2022/05/13 00:28:03;;;;;;;14.37;12.67;;;;;;;;;;5004154;28;20414;-86
2022/05/13 00:30:30;;;;;;;13.10;11.77;;;;;;;;;;5003847;28;20466;-86
2022/05/13 00:32:56;;;;;;;15.67;13.30;;;;;;;;;;5002561;28;20406;-86
2022/05/13 00:35:22;;;;;;;16.97;13.07;;;;;;;;;;5011504;28;20419;-86
2022/05/13 00:37:49;;;;;;;14.83;13.30;;;;;;;;;;5021836;28;20435;-86
2022/05/13 00:40:16;;;;;;;12.83;11.23;;;;;;;;;;5021991;28;20739;-86
2022/05/13 00:42:43;;;;;;;16.40;11.97;;;;;;;;;;5003296;28;20445;-86
2022/05/13 00:45:13;;;;;;;13.53;12.10;;;;;;;;;;5020603;28;20450;-86
2022/05/13 00:47:39;;;;;;;14.93;11.10;;;;;;;;;;5002013;28;20460;-84
2022/05/13 00:50:06;;;;;;;13.27;11.07;;;;;;;;;;5020471;28;20896;-84
2022/05/13 00:52:32;;;;;;;12.83;11.53;;;;;;;;;;5005642;28;20503;-86
2022/05/13 00:55:00;;;;;;;12.00;10.70;;;;;;;;;;5006061;28;20451;-86
2022/05/13 00:57:26;;;;;;;10.90;9.80;;;;;;;;;;5005841;28;20415;-84
2022/05/13 00:59:53;;;;;;;11.63;10.43;;;;;;;;;;5023733;28;20403;-84
2022/05/13 01:02:19;;;;;;;12.87;10.00;;;;;;;;;;5006835;28;20411;-86
2022/05/13 01:04:45;;;;;;;16.00;11.40;;;;;;;;;;5005117;28;20435;-86
2022/05/13 01:07:14;;;;;;;12.77;10.00;;;;;;;;;;5023144;28;20438;-86
2022/05/13 01:09:45;;;;;;;11.70;10.50;;;;;;;;;;5023199;28;20900;-85
2022/05/13 01:12:13;;;;;;;13.60;10.50;;;;;;;;;;5005049;28;20475;-86
2022/05/13 01:14:42;;;;;;;14.87;9.73;;;;;;;;;;5022677;28;20419;-87
2022/05/13 01:20:07;;;;;;;13.50;10.80;;;;;;;;;;5023535;28;20435;-87
2022/05/13 01:23:00;;;;;;;14.33;9.73;;;;;;;;;;5022722;28;20430;-87
2022/05/13 01:25:28;;;;;;;10.60;9.43;;;;;;;;;;5020282;28;20439;-86
2022/05/13 01:27:56;;;;;;;11.90;10.40;;;;;;;;;;5022590;28;20509;-87
2022/05/13 01:30:27;;;;;;;10.60;9.60;;;;;;;;;;5005167;28;20415;-86
2022/05/13 01:32:53;;;;;;;10.77;9.20;;;;;;;;;;5023447;28;20372;-86
2022/05/13 01:35:20;;;;;;;11.00;9.90;;;;;;;;;;5021942;28;20426;-86
2022/05/13 01:37:46;;;;;;;10.30;9.30;;;;;;;;;;5022771;28;20431;-86
2022/05/13 01:40:13;;;;;;;11.80;9.20;;;;;;;;;;5022553;28;20827;-87
2022/05/13 01:42:39;;;;;;;14.60;9.00;;;;;;;;;;5021472;28;20408;-87
2022/05/13 01:45:07;;;;;;;10.17;8.57;;;;;;;;;;5021961;28;20431;-86
2022/05/13 01:47:33;;;;;;;10.57;9.57;;;;;;;;;;5020863;28;20961;-87
2022/05/13 01:49:59;;;;;;;11.20;9.53;;;;;;;;;;5022446;28;20415;-87
2022/05/13 01:52:25;;;;;;;13.00;9.80;;;;;;;;;;5019294;28;20431;-87
2022/05/13 01:54:51;;;;;;;10.50;9.50;;;;;;;;;;5008910;28;20454;-85
2022/05/13 01:57:17;;;;;;;9.50;8.60;;;;;;;;;;5018116;28;20437;-85
2022/05/13 01:59:43;;;;;;;13.40;10.33;;;;;;;;;;5017117;28;20425;-85
2022/05/13 02:02:09;;;;;;;12.30;8.57;;;;;;;;;;5000404;28;20482;-85
2022/05/13 02:04:35;;;;;;;11.20;9.60;;;;;;;;;;5018946;28;20579;-85
2022/05/13 02:07:01;;;;;;;12.67;9.77;;;;;;;;;;5019635;28;20447;-85
2022/05/13 02:09:27;;;;;;;9.80;8.80;;;;;;;;;;5018915;28;20505;-85
2022/05/13 02:11:54;;;;;;;11.10;9.80;;;;;;;;;;5018959;28;20418;-85
2022/05/13 02:14:21;;;;;;;11.03;10.00;;;;;;;;;;5020368;28;20412;-87
2022/05/13 02:16:47;;;;;;;17.83;9.20;;;;;;;;;;5020896;28;20818;-87
2022/05/13 02:19:13;;;;;;;11.83;8.87;;;;;;;;;;5020092;28;20447;-86
2022/05/13 02:21:40;;;;;;;11.17;9.97;;;;;;;;;;5021548;28;20399;-86
2022/05/13 02:24:06;;;;;;;10.57;8.83;;;;;;;;;;5021296;28;20420;-85
2022/05/13 02:26:32;;;;;;;10.33;9.33;;;;;;;;;;5022119;28;20508;-87
2022/05/13 02:29:01;;;;;;;12.40;8.97;;;;;;;;;;5023300;28;20423;-86
2022/05/13 02:31:27;;;;;;;13.93;8.90;;;;;;;;;;5021273;28;20410;-86
2022/05/13 02:33:54;;;;;;;11.60;8.13;;;;;;;;;;5020613;28;20399;-87
2022/05/13 02:36:20;;;;;;;12.47;9.37;;;;;;;;;;5020157;28;20455;-86
2022/05/13 02:38:46;;;;;;;8.57;7.53;;;;;;;;;;5021669;28;20407;-87
2022/05/13 02:41:12;;;;;;;10.00;9.00;;;;;;;;;;5020752;28;20408;-86
2022/05/13 02:43:40;;;;;;;10.23;8.67;;;;;;;;;;5020426;28;20411;-87
2022/05/13 02:46:06;;;;;;;9.43;8.47;;;;;;;;;;5021566;28;20463;-85
2022/05/13 02:48:32;;;;;;;9.67;8.77;;;;;;;;;;5021354;28;20416;-86
2022/05/13 02:50:58;;;;;;;10.10;9.10;;;;;;;;;;5019840;28;20464;-86
2022/05/13 02:53:25;;;;;;;10.60;9.03;;;;;;;;;;5021912;28;20935;-87
2022/05/13 02:55:51;;;;;;;9.70;8.50;;;;;;;;;;5024868;28;20451;-87
2022/05/13 02:58:17;;;;;;;10.03;8.57;;;;;;;;;;5023072;28;20475;-87
2022/05/13 03:00:44;;;;;;;11.00;9.50;;;;;;;;;;5022081;28;20403;-86
2022/05/13 03:03:10;;;;;;;10.67;9.00;;;;;;;;;;5028622;28;20479;-85
2022/05/13 03:05:36;;;;;;;11.13;9.80;;;;;;;;;;5033909;28;20413;-86
2022/05/13 03:08:03;;;;;;;14.90;10.37;;;;;;;;;;5023592;28;20586;-87
2022/05/13 03:10:30;;;;;;;18.80;11.13;;;;;;;;;;5004235;28;20453;-87
2022/05/13 03:12:56;;;;;;;10.30;8.83;;;;;;;;;;5021182;28;20399;-87
2022/05/13 03:15:22;;;;;;;12.50;10.10;;;;;;;;;;5019923;28;20426;-87
2022/05/13 03:17:49;;;;;;;11.37;10.20;;;;;;;;;;5021976;28;20395;-87
2022/05/13 03:20:17;;;;;;;12.33;9.30;;;;;;;;;;5020787;28;20402;-87
2022/05/13 03:22:44;;;;;;;11.57;8.97;;;;;;;;;;5019743;28;20407;-86
2022/05/13 03:25:10;;;;;;;14.17;9.53;;;;;;;;;;5021045;28;20426;-86
2022/05/13 03:27:36;;;;;;;14.03;9.40;;;;;;;;;;5019866;28;20509;-87
2022/05/13 03:30:03;;;;;;;11.13;9.30;;;;;;;;;;5017003;28;20435;-87
2022/05/13 03:32:29;;;;;;;9.70;8.70;;;;;;;;;;5019508;28;20786;-85
2022/05/13 03:34:55;;;;;;;10.47;7.57;;;;;;;;;;5021307;28;20450;-85
2022/05/13 03:37:21;;;;;;;13.57;8.57;;;;;;;;;;5020943;28;20442;-86
2022/05/13 03:39:48;;;;;;;7.73;7.03;;;;;;;;;;5019373;28;20455;-87
2022/05/13 03:42:14;;;;;;;12.00;7.00;;;;;;;;;;5020865;28;20422;-87
2022/05/13 03:44:40;;;;;;;7.17;6.43;;;;;;;;;;5020607;28;20427;-87
2022/05/13 03:47:06;;;;;;;11.40;8.03;;;;;;;;;;5021016;28;20927;-84
2022/05/13 03:49:33;;;;;;;8.70;7.27;;;;;;;;;;5019176;28;20424;-87
2022/05/13 03:51:59;;;;;;;6.77;5.73;;;;;;;;;;5020807;28;20407;-87
2022/05/13 03:54:25;;;;;;;7.53;5.90;;;;;;;;;;5019271;28;20431;-87
2022/05/13 03:56:51;;;;;;;9.03;6.20;;;;;;;;;;5067733;23;20520;-88
2022/05/13 03:59:17;;;;;;;6.27;5.63;;;;;;;;;;5029342;28;20427;-88
2022/05/13 04:01:43;;;;;;;9.37;6.03;;;;;;;;;;5021082;28;20392;-88
2022/05/13 04:04:09;;;;;;;6.13;5.10;;;;;;;;;;5020585;28;20760;-88
2022/05/13 04:09:20;;;;;;;8.50;5.60;;;;;;;;;;5023811;28;20391;-86
2022/05/13 04:16:04;;;;;;;7.73;5.90;;;;;;;;;;5021488;28;20502;-86
2022/05/13 04:17:16;;;;;;;6.77;6.07;;;;;;;;;;5021948;28;20407;-86
2022/05/13 04:19:42;;;;;;;9.40;5.97;;;;;;;;;;5022066;28;20498;-88
2022/05/13 04:22:09;;;;;;;8.00;6.07;;;;;;;;;;5021827;28;20438;-87
2022/05/13 04:24:35;;;;;;;9.23;6.70;;;;;;;;;;5022103;28;20408;-87
2022/05/13 04:27:01;;;;;;;7.30;6.17;;;;;;;;;;5023646;28;20954;-87
2022/05/13 04:29:27;;;;;;;11.07;6.87;;;;;;;;;;5023700;28;20899;-87
2022/05/13 04:31:53;;;;;;;7.30;6.27;;;;;;;;;;5025887;28;20434;-87
2022/05/13 04:34:19;;;;;;;7.97;6.17;;;;;;;;;;5028885;28;20930;-87
2022/05/13 04:36:46;;;;;;;7.60;6.30;;;;;;;;;;5031298;28;20435;-88
2022/05/13 04:39:13;;;;;;;7.53;6.57;;;;;;;;;;5027536;28;20407;-88
2022/05/13 04:44:25;;;;;;;8.47;6.57;;;;;;;;;;5025717;28;20394;-88
2022/05/13 04:46:51;;;;;;;7.93;6.43;;;;;;;;;;5026287;28;20454;-88
2022/05/13 04:49:17;;;;;;;7.70;6.90;;;;;;;;;;5024000;28;20409;-88
2022/05/13 04:51:43;;;;;;;7.90;7.10;;;;;;;;;;5023918;28;20458;-88
2022/05/13 04:54:10;;;;;;;10.60;6.90;;;;;;;;;;5023189;28;20410;-88
2022/05/13 04:56:36;;;;;;;7.60;6.60;;;;;;;;;;5023133;28;20478;-88
2022/05/13 04:59:02;;;;;;;9.10;6.73;;;;;;;;;;5023852;28;20407;-88
2022/05/13 05:01:28;;;;;;;7.63;6.13;;;;;;;;;;5022978;28;20419;-88
2022/05/13 05:03:54;;;;;;;8.13;6.47;;;;;;;;;;5022913;28;20424;-88
2022/05/13 05:06:21;;;;;;;7.90;6.77;;;;;;;;;;5021461;28;20489;-89
2022/05/13 05:08:47;;;;;;;9.67;7.30;;;;;;;;;;5029862;28;20419;-88
2022/05/13 05:11:14;;;;;;;7.87;7.07;;;;;;;;;;5036955;28;20437;-88
2022/05/13 05:13:45;;;;;;;11.33;7.47;;;;;;;;;;5031355;28;20414;-88
2022/05/13 05:16:11;;;;;;;10.23;6.70;;;;;;;;;;5025823;28;20424;-88
2022/05/13 05:18:38;;;;;;;6.63;6.03;;;;;;;;;;5026321;28;20403;-88
2022/05/13 05:21:05;;;;;;;8.03;6.10;;;;;;;;;;5026479;28;20403;-88
2022/05/13 05:23:33;;;;;;;7.00;5.90;;;;;;;;;;5025990;28;20403;-88
2022/05/13 05:25:59;;;;;;;5.90;5.30;;;;;;;;;;5024923;28;20954;-88
2022/05/13 05:28:26;;;;;;;10.47;5.30;;;;;;;;;;5025345;28;20407;-88
2022/05/13 05:30:52;;;;;;;5.43;4.93;;;;;;;;;;5023660;28;20884;-88
2022/05/13 05:33:19;;;;;;;6.93;4.90;;;;;;;;;;5024027;28;20400;-88
2022/05/13 05:35:45;;;;;;;6.67;5.33;;;;;;;;;;5022560;28;20446;-86
2022/05/13 05:38:11;;;;;;;5.50;4.53;;;;;;;;;;5021281;28;20892;-88
2022/05/13 05:40:38;;;;;;;10.63;4.90;;;;;;;;;;5035357;28;20390;-86
2022/05/13 05:43:06;;;;;;;5.87;5.20;;;;;;;;;;5038006;28;20426;-86
2022/05/13 05:45:32;;;;;;;6.50;5.43;;;;;;;;;;5037362;28;20423;-88
2022/05/13 05:47:58;;;;;;;6.43;4.73;;;;;;;;;;5023843;28;20519;-88
2022/05/13 05:50:24;;;;;;;6.50;5.50;;;;;;;;;;5022949;28;20403;-88
2022/05/13 05:52:50;;;;;;;10.00;5.83;;;;;;;;;;5023736;28;20399;-89
2022/05/13 05:58:06;;;;;;;6.50;5.27;;;;;;;;;;5023390;28;20394;-89
2022/05/13 06:00:33;;;;;;;10.53;5.67;;;;;;;;;;5023527;28;20403;-89
2022/05/13 06:02:59;;;;;;;5.27;4.77;;;;;;;;;;5022673;28;20412;-88
2022/05/13 06:05:25;;;;;;;7.50;6.70;;;;;;;;;;5023172;28;20818;-88
2022/05/13 06:07:52;;;;;;;6.63;5.93;;;;;;;;;;5022179;28;20451;-89
2022/05/13 06:10:18;;;;;;;6.53;5.57;;;;;;;;;;5022182;28;20435;-89
2022/05/13 06:12:44;;;;;;;8.63;6.83;;;;;;;;;;5021592;28;20410;-88
2022/05/13 06:15:11;;;;;;;7.53;5.87;;;;;;;;;;5019893;28;20974;-88
2022/05/13 06:17:42;;;;;;;8.03;6.10;;;;;;;;;;5021756;28;20408;-89
2022/05/13 06:20:08;;;;;;;7.50;6.33;;;;;;;;;;5021620;28;20770;-86
2022/05/13 06:22:34;;;;;;;7.90;7.10;;;;;;;;;;5020743;28;20502;-87
2022/05/13 06:25:02;;;;;;;8.63;6.77;;;;;;;;;;5020219;28;20513;-86
2022/05/13 06:27:28;;;;;;;7.73;6.93;;;;;;;;;;5021682;28;20447;-86
2022/05/13 06:29:54;;;;;;;9.70;7.37;;;;;;;;;;5021527;28;20412;-85
2022/05/13 06:32:20;;;;;;;9.10;7.33;;;;;;;;;;5020828;28;20406;-86
2022/05/13 06:34:46;;;;;;;12.90;7.00;;;;;;;;;;5021575;28;20406;-86
2022/05/13 06:37:12;;;;;;;7.60;6.70;;;;;;;;;;5019646;28;20799;-88
2022/05/13 06:39:38;;;;;;;6.70;5.80;;;;;;;;;;5021375;28;20825;-87
2022/05/13 06:42:05;;;;;;;9.53;6.90;;;;;;;;;;5021794;28;20420;-88
2022/05/13 06:44:31;;;;;;;9.83;7.13;;;;;;;;;;5021521;28;20418;-87
2022/05/13 06:46:57;;;;;;;7.83;7.03;;;;;;;;;;5023036;28;20455;-86
2022/05/13 06:49:23;;;;;;;7.60;6.43;;;;;;;;;;5023384;28;20411;-86
2022/05/13 06:51:49;;;;;;;7.30;6.57;;;;;;;;;;5022680;28;20410;-86
2022/05/13 06:54:15;;;;;;;6.80;6.20;;;;;;;;;;5022545;28;20414;-88
2022/05/13 06:56:41;;;;;;;10.40;6.63;;;;;;;;;;5033125;28;20445;-84
2022/05/13 06:59:09;;;;;;;12.13;6.87;;;;;;;;;;5038718;28;20467;-87
2022/05/13 07:01:35;;;;;;;6.73;5.83;;;;;;;;;;5033937;28;20431;-86
2022/05/13 07:04:01;;;;;;;7.30;5.87;;;;;;;;;;5025312;28;20418;-88
2022/05/13 07:06:27;;;;;;;10.00;6.20;;;;;;;;;;5025159;28;20485;-88
2022/05/13 07:08:53;;;;;;;9.77;6.77;;;;;;;;;;5028928;28;20767;-86
2022/05/13 07:11:21;;;;;;;6.33;5.70;;;;;;;;;;5025950;28;20404;-87
2022/05/13 07:13:47;;;;;;;9.67;6.40;;;;;;;;;;5023328;28;20939;-88
2022/05/13 07:16:13;;;;;;;11.90;7.07;;;;;;;;;;5024926;28;20932;-87
2022/05/13 07:18:42;;;;;;;7.20;5.97;;;;;;;;;;5024110;28;20426;-88
2022/05/13 07:21:08;;;;;;;6.63;5.90;;;;;;;;;;5023032;28;20412;-88
2022/05/13 07:23:34;;;;;;;6.77;6.07;;;;;;;;;;5022250;28;20876;-88
2022/05/13 07:26:01;;;;;;;7.50;5.97;;;;;;;;;;5022548;28;20514;-87
2022/05/13 07:28:27;;;;;;;7.63;6.77;;;;;;;;;;5023360;28;20403;-88
2022/05/13 07:30:54;;;;;;;9.43;6.77;;;;;;;;;;5024346;28;20488;-85
2022/05/13 07:33:21;;;;;;;7.40;6.10;;;;;;;;;;5041704;28;20410;-85
2022/05/13 07:35:47;;;;;;;4.40;3.60;;;;;;;;;;5042897;28;20438;-85
2022/05/13 07:38:14;;;;;;;5.83;5.33;;;;;;;;;;5025374;28;20414;-85
2022/05/13 07:43:24;;;;;;;7.07;5.30;;;;;;;;;;5043302;28;20385;-84
2022/05/13 07:45:50;;;;;;;10.83;5.63;;;;;;;;;;5024195;28;20432;-84
2022/05/13 07:48:17;;;;;;;8.67;5.47;;;;;;;;;;5044995;28;20459;-87
2022/05/13 07:50:43;;;;;;;5.57;4.80;;;;;;;;;;5044135;28;20425;-88
2022/05/13 07:53:09;;;;;;;7.13;5.33;;;;;;;;;;5024623;28;20498;-86
2022/05/13 07:55:36;;;;;;;7.43;5.50;;;;;;;;;;5040205;28;20458;-86
2022/05/13 07:58:02;;;;;;;5.83;5.20;;;;;;;;;;5041100;28;20449;-88
2022/05/13 08:00:32;;;;;;;7.00;5.90;;;;;;;;;;5044251;28;20414;-87
2022/05/13 08:03:09;;;;;;;7.23;4.73;;;;;;;;;;5046390;28;20787;-86
2022/05/13 08:05:37;;;;;;;7.43;6.20;;;;;;;;;;5025629;28;20419;-86
2022/05/13 08:08:14;;;;;;;7.07;6.30;;;;;;;;;;5040733;28;20526;-87
2022/05/13 08:10:41;;;;;;;8.80;5.23;;;;;;;;;;5046368;28;20410;-87
2022/05/13 08:13:07;;;;;;;9.03;5.50;;;;;;;;;;5046364;28;20425;-87
2022/05/13 08:15:34;;;;;;;8.33;5.37;;;;;;;;;;5028682;28;20438;-84
2022/05/13 08:18:00;;;;;;;6.13;5.47;;;;;;;;;;5046230;28;20430;-84
2022/05/13 08:20:27;;;;;;;8.67;5.00;;;;;;;;;;5034306;28;20467;-86
2022/05/13 08:22:53;;;;;;;8.20;5.10;;;;;;;;;;5057569;28;20458;-86
2022/05/13 08:25:19;;;;;;;8.10;5.23;;;;;;;;;;5047437;28;20450;-85
2022/05/13 08:27:46;;;;;;;5.57;4.90;;;;;;;;;;5046159;28;20476;-84
2022/05/13 08:30:12;;;;;;;8.60;5.53;;;;;;;;;;5045043;28;20502;-86
2022/05/13 08:32:38;;;;;;;5.87;5.10;;;;;;;;;;5046059;28;20433;-86
2022/05/13 08:35:05;;;;;;;7.63;5.70;;;;;;;;;;5045397;28;20399;-86
2022/05/13 08:37:31;;;;;;;7.70;4.93;;;;;;;;;;5046110;28;20430;-85
2022/05/13 08:40:01;;;;;;;6.40;5.33;;;;;;;;;;5048034;28;20422;-85
2022/05/13 08:42:42;;;;;;;5.37;4.53;;;;;;;;;;5057489;28;20776;-84
2022/05/13 08:45:09;;;;;;;8.37;5.03;;;;;;;;;;5033206;28;20426;-87
2022/05/13 08:47:40;;;;;;;11.40;4.83;;;;;;;;;;5047062;28;20624;-84
2022/05/13 08:50:13;;;;;;;5.67;4.90;;;;;;;;;;5052741;28;20441;-87
2022/05/13 08:55:38;;;;;;;6.67;5.97;;;;;;;;;;5046820;28;20436;-89
2022/05/13 08:58:08;;;;;;;7.23;6.30;;;;;;;;;;5046033;28;20424;-87
2022/05/13 09:00:36;;;;;;;7.43;6.63;;;;;;;;;;5042242;28;20442;-87
2022/05/13 09:03:17;;;;;;;5.27;4.77;;;;;;;;;;5046481;28;20414;-88
2022/05/13 09:05:49;;;;;;;5.73;5.13;;;;;;;;;;5056344;28;20438;-88
2022/05/13 09:08:15;;;;;;;6.27;5.57;;;;;;;;;;5053203;28;20437;-89
2022/05/13 09:10:57;;;;;;;5.33;4.30;;;;;;;;;;5046397;28;20429;-88
2022/05/13 09:13:38;;;;;;;7.50;5.30;;;;;;;;;;5054918;28;20409;-88
2022/05/13 09:16:06;;;;;;;5.83;5.23;;;;;;;;;;5053376;28;20475;-88
2022/05/13 09:18:35;;;;;;;5.87;5.03;;;;;;;;;;5040345;28;20423;-88
2022/05/13 09:21:02;;;;;;;7.33;5.47;;;;;;;;;;5047707;28;20839;-86
2022/05/13 09:23:29;;;;;;;7.50;6.17;;;;;;;;;;5045643;28;21194;-87
2022/05/13 09:25:55;;;;;;;12.20;9.63;;;;;;;;;;5045123;28;20438;-90
2022/05/13 09:28:22;;;;;;;28.03;10.63;;;;;;;;;;5043931;28;20437;-87
2022/05/13 09:30:49;;;;;;;29.17;15.90;;;;;;;;;;5043158;28;20474;-88
2022/05/13 09:33:32;;;;;;;13.80;10.10;;;;;;;;;;5042687;28;20442;-88
2022/05/13 09:36:00;;;;;;;23.70;14.90;;;;;;;;;;5043135;28;20445;-88
2022/05/13 09:38:30;;;;;;;18.80;13.93;;;;;;;;;;5024067;28;20423;-86
2022/05/13 09:41:07;;;;;;;34.40;17.73;;;;;;;;;;5030441;28;20430;-85
2022/05/13 09:43:33;;;;;;;29.70;17.40;;;;;;;;;;5037021;28;20562;-88
2022/05/13 09:46:03;;;;;;;26.40;16.77;;;;;;;;;;5042487;28;20446;-87
2022/05/13 09:48:29;;;;;;;32.87;19.10;;;;;;;;;;5024824;28;20418;-88
2022/05/13 09:50:56;;;;;;;28.43;18.07;;;;;;;;;;5042019;28;20450;-88
2022/05/13 09:53:25;;;;;;;27.93;19.37;;;;;;;;;;5044668;28;20592;-88
2022/05/13 09:55:58;;;;;;;30.07;19.13;;;;;;;;;;5049113;22;20545;-87
2022/05/13 09:58:26;;;;;;;28.13;17.73;;;;;;;;;;5039971;28;20463;-84
2022/05/13 10:00:54;;;;;;;34.40;22.67;;;;;;;;;;5045647;28;20759;-85
2022/05/13 10:03:22;;;;;;;29.77;20.17;;;;;;;;;;5046505;28;20431;-84
2022/05/13 10:05:52;;;;;;;23.00;17.63;;;;;;;;;;5046524;28;20482;-85
2022/05/13 10:08:21;;;;;;;26.93;18.47;;;;;;;;;;5047352;28;20445;-84
2022/05/13 10:13:57;;;;;;;31.03;21.23;;;;;;;;;;5046470;28;20402;-84
2022/05/13 10:16:35;;;;;;;25.67;19.80;;;;;;;;;;5045337;28;20410;-84
2022/05/13 10:19:07;;;;;;;19.53;14.80;;;;;;;;;;5046980;28;20759;-85
2022/05/13 10:21:39;;;;;;;21.40;16.03;;;;;;;;;;5045002;28;20410;-84
2022/05/13 10:24:09;;;;;;;13.30;10.63;;;;;;;;;;5045524;28;20409;-85
2022/05/13 10:26:37;;;;;;;14.27;10.77;;;;;;;;;;5046117;28;20458;-84
2022/05/13 10:29:10;;;;;;;11.77;9.70;;;;;;;;;;5045357;28;20426;-84
2022/05/13 10:31:41;;;;;;;11.07;8.50;;;;;;;;;;5047115;28;20754;-84
2022/05/13 10:34:10;;;;;;;16.50;10.60;;;;;;;;;;5046255;28;20470;-84
2022/05/13 10:36:44;;;;;;;8.47;6.80;;;;;;;;;;5045301;28;20448;-84
2022/05/13 10:39:10;;;;;;;11.50;8.63;;;;;;;;;;5046733;28;20410;-84
2022/05/13 10:41:39;;;;;;;13.33;9.43;;;;;;;;;;5045189;28;20505;-84
2022/05/13 10:44:09;;;;;;;15.47;9.47;;;;;;;;;;5046574;28;20417;-84
2022/05/13 10:46:44;;;;;;;14.90;9.87;;;;;;;;;;5043801;28;20462;-83
2022/05/13 10:49:11;;;;;;;37.10;14.33;;;;;;;;;;5045370;28;20397;-84
2022/05/13 10:51:57;;;;;;;94.70;15.23;;;;;;;;;;5043819;28;20395;-84
2022/05/13 10:54:23;;;;;;;31.33;15.33;;;;;;;;;;5047323;28;20957;-84
2022/05/13 10:56:59;;;;;;;39.47;16.47;;;;;;;;;;5049934;28;20453;-84
2022/05/13 10:59:31;;;;;;;23.77;14.50;;;;;;;;;;5049441;28;20464;-84
2022/05/13 11:02:00;;;;;;;23.97;14.27;;;;;;;;;;5049957;28;20398;-85
2022/05/13 11:04:35;;;;;;;24.53;14.17;;;;;;;;;;5045048;28;20801;-86
2022/05/13 11:07:07;;;;;;;31.17;16.47;;;;;;;;;;5045469;28;20450;-84
2022/05/13 11:09:33;;;;;;;27.40;15.73;;;;;;;;;;5045617;28;20410;-85
2022/05/13 11:12:08;;;;;;;22.97;14.60;;;;;;;;;;5045018;28;20417;-85
2022/05/13 11:14:58;;;;;;;26.53;16.27;;;;;;;;;;5045497;28;20417;-86
2022/05/13 11:17:31;;;;;;;31.13;14.37;;;;;;;;;;5044533;28;20453;-85
2022/05/13 11:20:05;;;;;;;23.30;14.97;;;;;;;;;;5043942;28;20438;-85
2022/05/13 11:22:50;;;;;;;30.87;15.70;;;;;;;;;;5041106;28;20443;-84
2022/05/13 11:28:16;;;;;;;23.97;14.43;;;;;;;;;;5040992;28;20549;-84
2022/05/13 11:30:48;;;;;;;22.83;14.77;;;;;;;;;;5036962;28;20403;-84
2022/05/13 11:33:36;;;;;;;20.90;12.90;;;;;;;;;;5035635;28;20414;-84
2022/05/13 11:36:02;;;;;;;17.17;10.00;;;;;;;;;;5035221;28;20402;-84
2022/05/13 11:38:34;;;;;;;13.80;9.20;;;;;;;;;;5034134;28;20895;-84
2022/05/13 11:41:04;;;;;;;25.97;10.97;;;;;;;;;;5039608;28;20406;-83
2022/05/13 11:43:36;;;;;;;21.87;12.53;;;;;;;;;;5040254;28;20561;-84
2022/05/13 11:46:02;;;;;;;19.97;12.33;;;;;;;;;;5040749;28;20459;-84
2022/05/13 11:48:28;;;;;;;16.03;10.87;;;;;;;;;;5039592;28;20437;-84
2022/05/13 11:51:15;;;;;;;17.17;10.40;;;;;;;;;;5041644;28;20433;-84
2022/05/13 11:53:44;;;;;;;19.60;11.03;;;;;;;;;;5039945;28;20383;-84
2022/05/13 11:56:16;;;;;;;20.50;12.17;;;;;;;;;;5040509;28;20434;-85
2022/05/13 11:58:42;;;;;;;20.97;13.10;;;;;;;;;;5039503;28;20437;-85
2022/05/13 12:01:10;;;;;;;20.63;12.00;;;;;;;;;;5051555;28;20402;-83
2022/05/13 12:03:36;;;;;;;14.23;11.30;;;;;;;;;;5047270;28;20435;-84
2022/05/13 12:06:06;;;;;;;18.90;11.87;;;;;;;;;;5043608;28;20399;-85
2022/05/13 12:08:53;;;;;;;10.87;9.20;;;;;;;;;;5024944;28;20437;-84
2022/05/13 12:11:25;;;;;;;10.20;7.70;;;;;;;;;;5043517;28;20403;-85
2022/05/13 12:14:00;;;;;;;9.23;7.10;;;;;;;;;;5042291;28;20417;-84
2022/05/13 12:16:29;;;;;;;12.90;6.53;;;;;;;;;;5043029;28;20452;-85
2022/05/13 12:19:14;;;;;;;13.40;7.53;;;;;;;;;;5043257;28;20915;-84
2022/05/13 12:21:49;;;;;;;10.27;8.07;;;;;;;;;;5041821;28;20457;-85
2022/05/13 12:24:19;;;;;;;11.40;8.80;;;;;;;;;;5042349;28;20518;-85
2022/05/13 12:26:56;;;;;;;12.03;8.40;;;;;;;;;;5041423;28;20454;-83
2022/05/13 12:29:22;;;;;;;19.47;12.70;;;;;;;;;;5036935;28;20418;-84
2022/05/13 12:31:54;;;;;;;19.83;12.90;;;;;;;;;;5040925;28;20871;-82
2022/05/13 12:37:35;;;;;;;10.60;8.87;;;;;;;;;;5042028;28;20441;-84
2022/05/13 12:40:01;;;;;;;18.80;11.77;;;;;;;;;;5041706;28;20761;-85
2022/05/13 12:42:37;;;;;;;13.93;9.40;;;;;;;;;;5037559;28;20410;-85
2022/05/13 12:45:04;;;;;;;11.70;8.70;;;;;;;;;;5041706;28;20891;-83
2022/05/13 12:47:31;;;;;;;11.37;8.43;;;;;;;;;;5042409;28;20448;-84
2022/05/13 12:50:16;;;;;;;11.30;8.90;;;;;;;;;;5045077;28;20418;-84
2022/05/13 12:52:44;;;;;;;8.70;7.70;;;;;;;;;;5044790;28;20432;-84
2022/05/13 12:55:20;;;;;;;12.63;8.27;;;;;;;;;;5043154;28;20434;-82
2022/05/13 12:57:47;;;;;;;8.67;7.03;;;;;;;;;;5042660;28;20464;-84
2022/05/13 13:00:19;;;;;;;11.97;9.10;;;;;;;;;;5044122;28;20410;-83
2022/05/13 13:02:48;;;;;;;16.87;8.73;;;;;;;;;;5044302;28;20395;-84
2022/05/13 13:05:18;;;;;;;9.63;7.07;;;;;;;;;;5044263;28;20468;-83
2022/05/13 13:07:44;;;;;;;12.17;7.20;;;;;;;;;;5043443;28;20446;-84
2022/05/13 13:10:16;;;;;;;7.20;6.40;;;;;;;;;;5043210;28;20415;-84
2022/05/13 13:13:01;;;;;;;7.47;6.53;;;;;;;;;;5043368;28;20399;-83
2022/05/13 13:15:31;;;;;;;8.13;7.23;;;;;;;;;;5045110;28;20470;-84
2022/05/13 13:17:59;;;;;;;8.10;5.93;;;;;;;;;;5046805;28;20818;-85
2022/05/13 13:20:31;;;;;;;8.90;6.40;;;;;;;;;;5046104;28;20460;-84
2022/05/13 13:23:01;;;;;;;10.20;6.47;;;;;;;;;;5044387;28;20749;-85
2022/05/13 13:25:27;;;;;;;8.80;6.00;;;;;;;;;;5043032;28;20437;-83
2022/05/13 13:27:56;;;;;;;12.43;6.17;;;;;;;;;;5043390;28;20458;-83
2022/05/13 13:30:23;;;;;;;17.60;9.00;;;;;;;;;;5044860;28;20418;-84
2022/05/13 13:32:50;;;;;;;8.07;5.83;;;;;;;;;;5044716;28;20425;-83
2022/05/13 13:35:16;;;;;;;6.47;5.60;;;;;;;;;;5044639;28;20410;-84
2022/05/13 13:37:42;;;;;;;7.67;5.70;;;;;;;;;;5043448;28;20481;-84
2022/05/13 13:40:22;;;;;;;10.10;5.77;;;;;;;;;;5048178;28;20407;-84
2022/05/13 13:42:48;;;;;;;7.50;5.57;;;;;;;;;;5050632;28;20414;-84
2022/05/13 13:45:20;;;;;;;6.07;4.47;;;;;;;;;;5049571;28;20423;-83
2022/05/13 13:47:48;;;;;;;7.80;4.73;;;;;;;;;;5050043;28;20581;-84
2022/05/13 13:50:20;;;;;;;7.90;5.20;;;;;;;;;;5047136;28;20965;-84
2022/05/13 13:52:47;;;;;;;12.50;5.10;;;;;;;;;;5048765;28;20481;-83
2022/05/13 13:55:23;;;;;;;7.27;4.53;;;;;;;;;;5047862;28;20409;-81
2022/05/13 13:57:58;;;;;;;6.97;5.00;;;;;;;;;;5040450;28;20869;-83
2022/05/13 14:00:33;;;;;;;9.67;5.53;;;;;;;;;;5042105;28;20884;-84
2022/05/13 14:03:04;;;;;;;10.20;4.27;;;;;;;;;;5032641;28;20421;-80
2022/05/13 14:05:31;;;;;;;9.00;4.10;;;;;;;;;;5041558;28;20418;-84
2022/05/13 14:07:57;;;;;;;7.10;4.47;;;;;;;;;;5042074;28;20462;-84
2022/05/13 14:10:32;;;;;;;6.60;4.37;;;;;;;;;;5042843;28;20509;-83
2022/05/13 14:13:01;;;;;;;8.40;4.93;;;;;;;;;;5046383;28;20434;-83
2022/05/13 14:15:30;;;;;;;6.77;4.40;;;;;;;;;;5042334;28;20406;-84
2022/05/13 14:17:57;;;;;;;6.77;4.97;;;;;;;;;;5044005;28;20447;-83
2022/05/13 14:20:43;;;;;;;7.93;4.73;;;;;;;;;;5043891;28;20748;-83
2022/05/13 14:23:16;;;;;;;4.67;4.23;;;;;;;;;;5043195;28;20445;-83
2022/05/13 14:25:54;;;;;;;7.47;4.40;;;;;;;;;;5041637;28;20418;-83
2022/05/13 14:28:21;;;;;;;5.63;4.50;;;;;;;;;;5042069;28;20514;-84
2022/05/13 14:30:50;;;;;;;6.07;4.97;;;;;;;;;;5040737;28;20422;-84
2022/05/13 14:33:16;;;;;;;12.33;4.90;;;;;;;;;;5039724;28;20415;-83
2022/05/13 14:35:42;;;;;;;9.50;4.83;;;;;;;;;;5038948;28;20838;-84
2022/05/13 14:38:10;;;;;;;11.17;4.27;;;;;;;;;;5039732;28;20461;-83
2022/05/13 14:40:43;;;;;;;6.30;3.63;;;;;;;;;;5040147;28;20430;-84
2022/05/13 14:43:13;;;;;;;5.23;4.40;;;;;;;;;;5036828;28;20441;-84
2022/05/13 14:45:41;;;;;;;5.80;4.20;;;;;;;;;;5039515;28;20430;-84
2022/05/13 14:48:29;;;;;;;5.80;4.07;;;;;;;;;;5038128;28;20466;-83
2022/05/13 14:51:14;;;;;;;8.40;4.40;;;;;;;;;;5038758;28;20728;-84
2022/05/13 14:53:51;;;;;;;7.00;4.30;;;;;;;;;;5039674;28;20461;-84
2022/05/13 14:56:17;;;;;;;9.90;4.83;;;;;;;;;;5039514;28;20469;-84
2022/05/13 14:58:46;;;;;;;8.90;4.90;;;;;;;;;;5039813;28;20467;-84
2022/05/13 15:01:20;;;;;;;7.50;4.40;;;;;;;;;;5039359;28;20437;-84
2022/05/13 15:03:49;;;;;;;6.33;4.00;;;;;;;;;;5037997;28;20414;-85
2022/05/13 15:06:16;;;;;;;6.03;4.70;;;;;;;;;;5038456;28;20426;-84
2022/05/13 15:08:52;;;;;;;6.90;4.40;;;;;;;;;;5036372;28;20418;-83
2022/05/13 15:11:21;;;;;;;12.60;5.20;;;;;;;;;;5038702;28;20410;-83